sensor_id;sensor_type;location;lat;lon;timestamp;temperature;humidity
22456;DHT22;11395;53.204;6.502;2023-02-11T00:00:18;22.20;54.00
22456;DHT22;11395;53.204;6.502;2023-02-11T00:02:44;22.10;54.00
22456;DHT22;11395;53.204;6.502;2023-02-11T00:05:10;22.10;54.10
22456;DHT22;11395;53.204;6.502;2023-02-11T00:07:37;22.00;54.20
22456;DHT22;11395;53.204;6.502;2023-02-11T00:10:04;22.00;54.20
22456;DHT22;11395;53.204;6.502;2023-02-11T00:12:34;22.00;54.20
22456;DHT22;11395;53.204;6.502;2023-02-11T00:15:00;21.90;54.30
22456;DHT22;11395;53.204;6.502;2023-02-11T00:17:26;21.90;54.40
22456;DHT22;11395;53.204;6.502;2023-02-11T00:19:52;21.80;54.40
22456;DHT22;11395;53.204;6.502;2023-02-11T00:22:19;21.80;54.40
22456;DHT22;11395;53.204;6.502;2023-02-11T00:24:45;21.80;54.50
22456;DHT22;11395;53.204;6.502;2023-02-11T00:27:11;21.70;54.60
22456;DHT22;11395;53.204;6.502;2023-02-11T00:29:38;21.70;54.60
22456;DHT22;11395;53.204;6.502;2023-02-11T00:32:05;21.70;54.70
22456;DHT22;11395;53.204;6.502;2023-02-11T00:34:32;21.70;54.70
22456;DHT22;11395;53.204;6.502;2023-02-11T00:36:58;21.70;54.80
22456;DHT22;11395;53.204;6.502;2023-02-11T00:39:25;21.60;54.80
22456;DHT22;11395;53.204;6.502;2023-02-11T00:41:51;21.60;54.90
22456;DHT22;11395;53.204;6.502;2023-02-11T00:44:17;21.50;54.70
22456;DHT22;11395;53.204;6.502;2023-02-11T00:46:43;21.50;54.70
22456;DHT22;11395;53.204;6.502;2023-02-11T00:49:10;21.10;54.60
22456;DHT22;11395;53.204;6.502;2023-02-11T00:51:36;21.40;54.80
22456;DHT22;11395;53.204;6.502;2023-02-11T00:54:03;21.30;55.00
22456;DHT22;11395;53.204;6.502;2023-02-11T00:56:30;21.20;54.90
22456;DHT22;11395;53.204;6.502;2023-02-11T00:58:57;21.20;55.00
22456;DHT22;11395;53.204;6.502;2023-02-11T01:01:23;21.10;55.10
22456;DHT22;11395;53.204;6.502;2023-02-11T01:03:49;21.10;55.30
22456;DHT22;11395;53.204;6.502;2023-02-11T01:06:16;21.00;55.30
22456;DHT22;11395;53.204;6.502;2023-02-11T01:08:42;21.00;55.40
22456;DHT22;11395;53.204;6.502;2023-02-11T01:11:17;21.00;55.50
22456;DHT22;11395;53.204;6.502;2023-02-11T01:13:45;21.00;55.50
22456;DHT22;11395;53.204;6.502;2023-02-11T01:16:11;21.00;55.50
22456;DHT22;11395;53.204;6.502;2023-02-11T01:18:38;20.90;55.50
22456;DHT22;11395;53.204;6.502;2023-02-11T01:21:05;20.90;55.50
22456;DHT22;11395;53.204;6.502;2023-02-11T01:23:31;20.90;55.60
22456;DHT22;11395;53.204;6.502;2023-02-11T01:25:57;20.90;55.70
22456;DHT22;11395;53.204;6.502;2023-02-11T01:28:26;20.80;55.70
22456;DHT22;11395;53.204;6.502;2023-02-11T01:30:53;20.80;55.80
22456;DHT22;11395;53.204;6.502;2023-02-11T01:33:20;20.80;55.90
22456;DHT22;11395;53.204;6.502;2023-02-11T01:35:46;20.70;55.90
22456;DHT22;11395;53.204;6.502;2023-02-11T01:38:18;20.70;56.00
22456;DHT22;11395;53.204;6.502;2023-02-11T01:40:50;20.60;56.00
22456;DHT22;11395;53.204;6.502;2023-02-11T01:43:17;20.60;56.00
22456;DHT22;11395;53.204;6.502;2023-02-11T01:48:13;20.60;56.00
22456;DHT22;11395;53.204;6.502;2023-02-11T01:50:42;20.60;55.90
22456;DHT22;11395;53.204;6.502;2023-02-11T01:53:09;20.60;55.90
22456;DHT22;11395;53.204;6.502;2023-02-11T01:55:55;20.60;55.90
22456;DHT22;11395;53.204;6.502;2023-02-11T01:58:42;20.60;55.90
22456;DHT22;11395;53.204;6.502;2023-02-11T02:01:12;20.60;55.90
22456;DHT22;11395;53.204;6.502;2023-02-11T02:03:41;20.60;55.90
22456;DHT22;11395;53.204;6.502;2023-02-11T02:06:21;20.60;55.90
22456;DHT22;11395;53.204;6.502;2023-02-11T02:08:52;20.60;56.00
22456;DHT22;11395;53.204;6.502;2023-02-11T02:11:20;20.60;55.90
22456;DHT22;11395;53.204;6.502;2023-02-11T02:13:46;20.50;55.90
22456;DHT22;11395;53.204;6.502;2023-02-11T02:16:17;20.50;56.00
22456;DHT22;11395;53.204;6.502;2023-02-11T02:27:52;20.30;56.30
22456;DHT22;11395;53.204;6.502;2023-02-11T02:33:07;20.30;56.30
22456;DHT22;11395;53.204;6.502;2023-02-11T02:40:58;20.20;56.40
22456;DHT22;11395;53.204;6.502;2023-02-11T02:43:26;20.20;56.50
22456;DHT22;11395;53.204;6.502;2023-02-11T02:45:53;20.20;56.50
22456;DHT22;11395;53.204;6.502;2023-02-11T02:48:31;20.20;56.60
22456;DHT22;11395;53.204;6.502;2023-02-11T02:51:14;20.10;56.50
22456;DHT22;11395;53.204;6.502;2023-02-11T02:57:07;20.10;56.60
22456;DHT22;11395;53.204;6.502;2023-02-11T03:02:25;20.00;56.60
22456;DHT22;11395;53.204;6.502;2023-02-11T03:05:02;20.00;56.80
22456;DHT22;11395;53.204;6.502;2023-02-11T03:10:02;20.00;56.80
22456;DHT22;11395;53.204;6.502;2023-02-11T03:12:30;19.90;56.70
22456;DHT22;11395;53.204;6.502;2023-02-11T03:15:00;19.90;56.80
22456;DHT22;11395;53.204;6.502;2023-02-11T03:17:28;19.90;56.80
22456;DHT22;11395;53.204;6.502;2023-02-11T03:19:56;19.90;56.80
22456;DHT22;11395;53.204;6.502;2023-02-11T03:22:29;19.90;56.80
22456;DHT22;11395;53.204;6.502;2023-02-11T03:24:57;19.90;56.80
22456;DHT22;11395;53.204;6.502;2023-02-11T03:27:31;19.80;56.80
22456;DHT22;11395;53.204;6.502;2023-02-11T03:30:04;19.80;56.80
22456;DHT22;11395;53.204;6.502;2023-02-11T03:32:36;19.80;56.80
22456;DHT22;11395;53.204;6.502;2023-02-11T03:35:10;19.80;56.80
22456;DHT22;11395;53.204;6.502;2023-02-11T03:37:48;19.80;56.80
22456;DHT22;11395;53.204;6.502;2023-02-11T03:40:20;19.70;56.80
22456;DHT22;11395;53.204;6.502;2023-02-11T03:42:57;19.70;57.00
22456;DHT22;11395;53.204;6.502;2023-02-11T03:45:24;19.70;57.00
22456;DHT22;11395;53.204;6.502;2023-02-11T03:48:02;19.60;57.10
22456;DHT22;11395;53.204;6.502;2023-02-11T03:50:31;19.60;57.20
22456;DHT22;11395;53.204;6.502;2023-02-11T03:53:00;19.60;57.20
22456;DHT22;11395;53.204;6.502;2023-02-11T03:55:28;19.60;57.30
22456;DHT22;11395;53.204;6.502;2023-02-11T03:57:55;19.50;57.20
22456;DHT22;11395;53.204;6.502;2023-02-11T04:00:33;19.50;57.30
22456;DHT22;11395;53.204;6.502;2023-02-11T04:02:59;19.50;57.30
22456;DHT22;11395;53.204;6.502;2023-02-11T04:05:25;19.50;57.40
22456;DHT22;11395;53.204;6.502;2023-02-11T04:07:51;19.40;57.40
22456;DHT22;11395;53.204;6.502;2023-02-11T04:10:17;19.40;57.40
22456;DHT22;11395;53.204;6.502;2023-02-11T04:12:44;19.40;57.40
22456;DHT22;11395;53.204;6.502;2023-02-11T04:15:10;19.40;57.60
22456;DHT22;11395;53.204;6.502;2023-02-11T04:17:36;19.40;57.00
22456;DHT22;11395;53.204;6.502;2023-02-11T04:20:03;19.50;56.80
22456;DHT22;11395;53.204;6.502;2023-02-11T04:22:30;19.60;56.70
22456;DHT22;11395;53.204;6.502;2023-02-11T04:24:56;19.70;56.60
22456;DHT22;11395;53.204;6.502;2023-02-11T04:27:22;19.70;56.50
22456;DHT22;11395;53.204;6.502;2023-02-11T04:29:48;19.80;56.40
22456;DHT22;11395;53.204;6.502;2023-02-11T04:32:14;19.90;56.30
22456;DHT22;11395;53.204;6.502;2023-02-11T04:34:41;20.10;56.30
22456;DHT22;11395;53.204;6.502;2023-02-11T04:37:07;20.20;56.00
22456;DHT22;11395;53.204;6.502;2023-02-11T04:39:33;20.40;55.90
22456;DHT22;11395;53.204;6.502;2023-02-11T04:42:00;20.50;55.60
22456;DHT22;11395;53.204;6.502;2023-02-11T04:44:26;20.70;55.40
22456;DHT22;11395;53.204;6.502;2023-02-11T04:46:52;20.80;55.20
22456;DHT22;11395;53.204;6.502;2023-02-11T04:49:19;20.80;55.20
22456;DHT22;11395;53.204;6.502;2023-02-11T04:51:45;21.00;55.10
22456;DHT22;11395;53.204;6.502;2023-02-11T04:54:12;21.00;55.10
22456;DHT22;11395;53.204;6.502;2023-02-11T04:56:38;21.00;55.00
22456;DHT22;11395;53.204;6.502;2023-02-11T04:59:05;21.10;55.00
22456;DHT22;11395;53.204;6.502;2023-02-11T05:01:31;21.20;55.00
22456;DHT22;11395;53.204;6.502;2023-02-11T05:03:58;21.20;54.90
22456;DHT22;11395;53.204;6.502;2023-02-11T05:06:25;21.20;54.90
22456;DHT22;11395;53.204;6.502;2023-02-11T05:08:51;21.20;54.80
22456;DHT22;11395;53.204;6.502;2023-02-11T05:11:20;21.30;54.80
22456;DHT22;11395;53.204;6.502;2023-02-11T05:13:46;21.30;54.80
22456;DHT22;11395;53.204;6.502;2023-02-11T05:16:13;21.40;54.60
22456;DHT22;11395;53.204;6.502;2023-02-11T05:18:41;21.50;54.40
22456;DHT22;11395;53.204;6.502;2023-02-11T05:21:09;21.60;54.20
22456;DHT22;11395;53.204;6.502;2023-02-11T05:23:36;21.70;54.20
22456;DHT22;11395;53.204;6.502;2023-02-11T05:26:03;21.80;54.00
22456;DHT22;11395;53.204;6.502;2023-02-11T05:28:30;21.90;53.90
22456;DHT22;11395;53.204;6.502;2023-02-11T05:30:57;22.10;54.00
22456;DHT22;11395;53.204;6.502;2023-02-11T05:33:23;22.20;53.60
22456;DHT22;11395;53.204;6.502;2023-02-11T05:35:50;22.30;53.10
22456;DHT22;11395;53.204;6.502;2023-02-11T05:38:16;22.50;52.90
22456;DHT22;11395;53.204;6.502;2023-02-11T05:40:43;22.70;52.70
22456;DHT22;11395;53.204;6.502;2023-02-11T05:43:09;22.80;52.40
22456;DHT22;11395;53.204;6.502;2023-02-11T05:45:35;22.90;52.30
22456;DHT22;11395;53.204;6.502;2023-02-11T05:48:01;23.10;52.10
22456;DHT22;11395;53.204;6.502;2023-02-11T05:50:27;23.30;51.90
22456;DHT22;11395;53.204;6.502;2023-02-11T05:52:53;23.40;51.70
22456;DHT22;11395;53.204;6.502;2023-02-11T05:55:20;23.60;51.50
22456;DHT22;11395;53.204;6.502;2023-02-11T05:57:46;23.70;51.20
22456;DHT22;11395;53.204;6.502;2023-02-11T06:00:12;23.80;51.70
22456;DHT22;11395;53.204;6.502;2023-02-11T06:02:39;23.90;51.00
22456;DHT22;11395;53.204;6.502;2023-02-11T06:05:06;24.10;51.10
22456;DHT22;11395;53.204;6.502;2023-02-11T06:07:32;24.20;50.80
22456;DHT22;11395;53.204;6.502;2023-02-11T06:09:59;24.20;51.20
22456;DHT22;11395;53.204;6.502;2023-02-11T06:12:25;24.30;51.00
22456;DHT22;11395;53.204;6.502;2023-02-11T06:14:52;24.30;51.30
22456;DHT22;11395;53.204;6.502;2023-02-11T06:17:18;24.40;51.00
22456;DHT22;11395;53.204;6.502;2023-02-11T06:19:44;24.30;51.00
22456;DHT22;11395;53.204;6.502;2023-02-11T06:22:10;24.40;51.10
22456;DHT22;11395;53.204;6.502;2023-02-11T06:24:36;24.40;51.30
22456;DHT22;11395;53.204;6.502;2023-02-11T06:27:03;24.30;51.20
22456;DHT22;11395;53.204;6.502;2023-02-11T06:29:29;24.30;51.20
22456;DHT22;11395;53.204;6.502;2023-02-11T06:31:56;24.30;51.20
22456;DHT22;11395;53.204;6.502;2023-02-11T06:34:22;24.30;51.20
22456;DHT22;11395;53.204;6.502;2023-02-11T06:36:48;24.20;51.20
22456;DHT22;11395;53.204;6.502;2023-02-11T06:39:14;24.20;51.20
22456;DHT22;11395;53.204;6.502;2023-02-11T06:41:40;24.10;51.20
22456;DHT22;11395;53.204;6.502;2023-02-11T06:44:06;24.10;51.20
22456;DHT22;11395;53.204;6.502;2023-02-11T06:46:33;24.10;51.40
22456;DHT22;11395;53.204;6.502;2023-02-11T06:48:59;24.00;51.30
22456;DHT22;11395;53.204;6.502;2023-02-11T06:51:25;24.00;51.30
22456;DHT22;11395;53.204;6.502;2023-02-11T06:53:51;23.90;51.30
22456;DHT22;11395;53.204;6.502;2023-02-11T06:56:21;23.90;51.30
22456;DHT22;11395;53.204;6.502;2023-02-11T06:58:51;23.90;51.40
22456;DHT22;11395;53.204;6.502;2023-02-11T07:01:20;23.80;51.40
22456;DHT22;11395;53.204;6.502;2023-02-11T07:03:46;23.80;51.60
22456;DHT22;11395;53.204;6.502;2023-02-11T07:06:15;23.80;51.60
22456;DHT22;11395;53.204;6.502;2023-02-11T07:08:41;23.80;51.40
22456;DHT22;11395;53.204;6.502;2023-02-11T07:11:17;23.80;51.70
22456;DHT22;11395;53.204;6.502;2023-02-11T07:13:44;23.80;51.60
22456;DHT22;11395;53.204;6.502;2023-02-11T07:16:13;23.90;51.70
22456;DHT22;11395;53.204;6.502;2023-02-11T07:18:41;24.00;51.70
22456;DHT22;11395;53.204;6.502;2023-02-11T07:21:09;24.10;51.80
22456;DHT22;11395;53.204;6.502;2023-02-11T07:23:36;24.10;51.80
22456;DHT22;11395;53.204;6.502;2023-02-11T07:26:03;24.20;51.70
22456;DHT22;11395;53.204;6.502;2023-02-11T07:28:30;24.20;51.70
22456;DHT22;11395;53.204;6.502;2023-02-11T07:30:57;24.30;51.60
22456;DHT22;11395;53.204;6.502;2023-02-11T07:33:23;24.30;51.60
22456;DHT22;11395;53.204;6.502;2023-02-11T07:35:49;24.30;51.50
22456;DHT22;11395;53.204;6.502;2023-02-11T07:38:15;24.30;51.50
22456;DHT22;11395;53.204;6.502;2023-02-11T07:40:41;24.30;51.50
22456;DHT22;11395;53.204;6.502;2023-02-11T07:43:07;24.30;51.40
22456;DHT22;11395;53.204;6.502;2023-02-11T07:45:37;24.30;51.30
22456;DHT22;11395;53.204;6.502;2023-02-11T07:48:03;24.30;51.40
22456;DHT22;11395;53.204;6.502;2023-02-11T07:50:30;24.20;51.40
22456;DHT22;11395;53.204;6.502;2023-02-11T07:52:56;24.20;51.40
22456;DHT22;11395;53.204;6.502;2023-02-11T07:55:22;24.20;51.40
22456;DHT22;11395;53.204;6.502;2023-02-11T07:57:48;24.10;51.50
22456;DHT22;11395;53.204;6.502;2023-02-11T08:00:16;24.10;51.50
22456;DHT22;11395;53.204;6.502;2023-02-11T08:02:42;24.10;51.50
22456;DHT22;11395;53.204;6.502;2023-02-11T08:05:08;24.00;51.40
22456;DHT22;11395;53.204;6.502;2023-02-11T08:07:34;24.00;51.50
22456;DHT22;11395;53.204;6.502;2023-02-11T08:10:00;23.90;51.50
22456;DHT22;11395;53.204;6.502;2023-02-11T08:12:27;23.90;51.50
22456;DHT22;11395;53.204;6.502;2023-02-11T08:14:53;23.90;51.60
22456;DHT22;11395;53.204;6.502;2023-02-11T08:17:19;23.80;51.50
22456;DHT22;11395;53.204;6.502;2023-02-11T08:19:45;23.80;51.50
22456;DHT22;11395;53.204;6.502;2023-02-11T08:22:11;23.80;51.60
22456;DHT22;11395;53.204;6.502;2023-02-11T08:24:37;23.70;51.70
22456;DHT22;11395;53.204;6.502;2023-02-11T08:27:04;23.70;51.80
22456;DHT22;11395;53.204;6.502;2023-02-11T08:29:30;23.70;51.90
22456;DHT22;11395;53.204;6.502;2023-02-11T08:31:56;23.70;52.00
22456;DHT22;11395;53.204;6.502;2023-02-11T08:34:22;23.70;52.10
22456;DHT22;11395;53.204;6.502;2023-02-11T08:36:48;23.80;52.10
22456;DHT22;11395;53.204;6.502;2023-02-11T08:39:17;23.80;52.10
22456;DHT22;11395;53.204;6.502;2023-02-11T08:41:45;23.90;52.00
22456;DHT22;11395;53.204;6.502;2023-02-11T08:44:13;23.90;51.90
22456;DHT22;11395;53.204;6.502;2023-02-11T08:46:39;24.00;51.80
22456;DHT22;11395;53.204;6.502;2023-02-11T08:49:06;24.00;51.80
22456;DHT22;11395;53.204;6.502;2023-02-11T08:51:32;24.00;51.80
22456;DHT22;11395;53.204;6.502;2023-02-11T08:53:59;24.00;51.70
22456;DHT22;11395;53.204;6.502;2023-02-11T08:56:26;24.00;51.70
22456;DHT22;11395;53.204;6.502;2023-02-11T08:58:53;24.00;51.70
22456;DHT22;11395;53.204;6.502;2023-02-11T09:01:25;24.00;51.70
22456;DHT22;11395;53.204;6.502;2023-02-11T09:03:52;24.00;51.70
22456;DHT22;11395;53.204;6.502;2023-02-11T09:06:18;24.00;51.80
22456;DHT22;11395;53.204;6.502;2023-02-11T09:08:47;24.00;52.00
22456;DHT22;11395;53.204;6.502;2023-02-11T09:11:18;23.90;51.80
22456;DHT22;11395;53.204;6.502;2023-02-11T09:13:45;23.90;51.90
22456;DHT22;11395;53.204;6.502;2023-02-11T09:16:19;23.90;51.90
22456;DHT22;11395;53.204;6.502;2023-02-11T09:18:47;23.90;52.00
22456;DHT22;11395;53.204;6.502;2023-02-11T09:21:15;23.90;52.00
22456;DHT22;11395;53.204;6.502;2023-02-11T09:23:42;23.80;52.10
22456;DHT22;11395;53.204;6.502;2023-02-11T09:26:18;23.80;52.10
22456;DHT22;11395;53.204;6.502;2023-02-11T09:28:45;23.80;52.10
22456;DHT22;11395;53.204;6.502;2023-02-11T09:31:14;23.70;52.10
22456;DHT22;11395;53.204;6.502;2023-02-11T09:33:42;23.80;52.20
22456;DHT22;11395;53.204;6.502;2023-02-11T09:36:15;23.70;52.10
22456;DHT22;11395;53.204;6.502;2023-02-11T09:38:42;23.70;52.20
22456;DHT22;11395;53.204;6.502;2023-02-11T09:44:30;23.70;52.40
22456;DHT22;11395;53.204;6.502;2023-02-11T09:46:59;23.80;52.40
22456;DHT22;11395;53.204;6.502;2023-02-11T09:49:38;23.80;52.50
22456;DHT22;11395;53.204;6.502;2023-02-11T09:52:17;23.90;52.40
22456;DHT22;11395;53.204;6.502;2023-02-11T09:54:56;23.90;52.30
22456;DHT22;11395;53.204;6.502;2023-02-11T09:57:27;24.00;52.20
22456;DHT22;11395;53.204;6.502;2023-02-11T09:59:56;24.10;52.20
22456;DHT22;11395;53.204;6.502;2023-02-11T10:07:57;24.20;51.90
22456;DHT22;11395;53.204;6.502;2023-02-11T10:10:59;24.20;51.90
22456;DHT22;11395;53.204;6.502;2023-02-11T10:13:31;24.20;51.90
22456;DHT22;11395;53.204;6.502;2023-02-11T10:19:12;24.20;52.10
22456;DHT22;11395;53.204;6.502;2023-02-11T10:22:24;24.20;52.00
22456;DHT22;11395;53.204;6.502;2023-02-11T10:24:53;24.20;52.20
22456;DHT22;11395;53.204;6.502;2023-02-11T10:27:25;24.10;52.30
22456;DHT22;11395;53.204;6.502;2023-02-11T10:30:21;24.10;52.30
22456;DHT22;11395;53.204;6.502;2023-02-11T10:32:48;24.10;52.20
22456;DHT22;11395;53.204;6.502;2023-02-11T10:35:19;24.10;52.30
22456;DHT22;11395;53.204;6.502;2023-02-11T10:37:46;24.10;52.30
22456;DHT22;11395;53.204;6.502;2023-02-11T10:40:19;24.10;52.40
22456;DHT22;11395;53.204;6.502;2023-02-11T10:42:49;24.10;52.40
22456;DHT22;11395;53.204;6.502;2023-02-11T10:45:49;24.00;52.40
22456;DHT22;11395;53.204;6.502;2023-02-11T10:53:36;23.90;52.50
22456;DHT22;11395;53.204;6.502;2023-02-11T10:56:03;23.90;52.50
22456;DHT22;11395;53.204;6.502;2023-02-11T10:58:39;23.90;52.50
22456;DHT22;11395;53.204;6.502;2023-02-11T11:01:06;23.80;52.60
22456;DHT22;11395;53.204;6.502;2023-02-11T11:03:36;23.80;52.60
22456;DHT22;11395;53.204;6.502;2023-02-11T11:06:10;23.80;52.80
22456;DHT22;11395;53.204;6.502;2023-02-11T11:08:44;23.80;53.00
22456;DHT22;11395;53.204;6.502;2023-02-11T11:11:13;23.80;53.00
22456;DHT22;11395;53.204;6.502;2023-02-11T11:13:59;23.80;53.00
22456;DHT22;11395;53.204;6.502;2023-02-11T11:24:16;24.10;53.10
22456;DHT22;11395;53.204;6.502;2023-02-11T11:26:49;24.10;52.90
22456;DHT22;11395;53.204;6.502;2023-02-11T11:29:19;24.20;53.10
22456;DHT22;11395;53.204;6.502;2023-02-11T11:31:56;24.20;52.90
22456;DHT22;11395;53.204;6.502;2023-02-11T11:34:33;24.20;52.90
22456;DHT22;11395;53.204;6.502;2023-02-11T11:37:08;24.30;53.00
22456;DHT22;11395;53.204;6.502;2023-02-11T11:39:35;24.20;52.80
22456;DHT22;11395;53.204;6.502;2023-02-11T11:42:04;24.20;52.80
22456;DHT22;11395;53.204;6.502;2023-02-11T11:44:33;24.20;52.70
22456;DHT22;11395;53.204;6.502;2023-02-11T11:55:24;24.30;52.70
22456;DHT22;11395;53.204;6.502;2023-02-11T11:57:51;24.30;53.50
22456;DHT22;11395;53.204;6.502;2023-02-11T12:00:34;24.20;52.90
22456;DHT22;11395;53.204;6.502;2023-02-11T12:06:11;24.20;52.90
22456;DHT22;11395;53.204;6.502;2023-02-11T12:16:56;24.10;53.30
22456;DHT22;11395;53.204;6.502;2023-02-11T12:19:52;24.10;53.20
22456;DHT22;11395;53.204;6.502;2023-02-11T12:25:29;24.00;53.30
22456;DHT22;11395;53.204;6.502;2023-02-11T12:39:05;23.70;53.60
22456;DHT22;11395;53.204;6.502;2023-02-11T12:49:50;23.60;53.80
22456;DHT22;11395;53.204;6.502;2023-02-11T12:55:21;23.70;53.90
22456;DHT22;11395;53.204;6.502;2023-02-11T12:57:49;23.80;53.90
22456;DHT22;11395;53.204;6.502;2023-02-11T13:00:24;23.80;53.90
22456;DHT22;11395;53.204;6.502;2023-02-11T13:03:11;23.90;53.80
22456;DHT22;11395;53.204;6.502;2023-02-11T13:05:56;23.90;53.70
22456;DHT22;11395;53.204;6.502;2023-02-11T13:08:42;23.90;53.80
22456;DHT22;11395;53.204;6.502;2023-02-11T13:11:23;24.00;53.70
22456;DHT22;11395;53.204;6.502;2023-02-11T13:14:04;24.00;53.70
22456;DHT22;11395;53.204;6.502;2023-02-11T13:16:39;24.00;53.70
22456;DHT22;11395;53.204;6.502;2023-02-11T13:24:47;23.90;53.60
22456;DHT22;11395;53.204;6.502;2023-02-11T13:27:49;23.90;53.60
22456;DHT22;11395;53.204;6.502;2023-02-11T13:35:39;23.80;53.80
22456;DHT22;11395;53.204;6.502;2023-02-11T13:38:28;23.80;54.00
22456;DHT22;11395;53.204;6.502;2023-02-11T13:43:32;23.70;54.00
22456;DHT22;11395;53.204;6.502;2023-02-11T13:46:04;23.70;54.00
22456;DHT22;11395;53.204;6.502;2023-02-11T13:48:37;23.70;54.00
22456;DHT22;11395;53.204;6.502;2023-02-11T13:51:13;23.60;54.10
22456;DHT22;11395;53.204;6.502;2023-02-11T13:53:58;23.60;54.10
22456;DHT22;11395;53.204;6.502;2023-02-11T13:59:01;23.50;54.80
22456;DHT22;11395;53.204;6.502;2023-02-11T14:05:15;23.40;54.30
22456;DHT22;11395;53.204;6.502;2023-02-11T14:13:31;23.50;54.70
22456;DHT22;11395;53.204;6.502;2023-02-11T14:16:15;23.60;54.60
22456;DHT22;11395;53.204;6.502;2023-02-11T14:23:39;23.90;54.40
22456;DHT22;11395;53.204;6.502;2023-02-11T14:37:12;24.10;54.40
22456;DHT22;11395;53.204;6.502;2023-02-11T14:42:44;24.10;54.40
22456;DHT22;11395;53.204;6.502;2023-02-11T14:45:24;24.10;54.50
22456;DHT22;11395;53.204;6.502;2023-02-11T14:47:59;24.10;54.90
22456;DHT22;11395;53.204;6.502;2023-02-11T14:50:35;24.10;55.10
22456;DHT22;11395;53.204;6.502;2023-02-11T14:53:04;24.20;55.20
22456;DHT22;11395;53.204;6.502;2023-02-11T14:55:38;24.20;55.60
22456;DHT22;11395;53.204;6.502;2023-02-11T14:58:18;24.20;55.90
22456;DHT22;11395;53.204;6.502;2023-02-11T15:00:57;24.20;55.80
22456;DHT22;11395;53.204;6.502;2023-02-11T15:03:32;24.20;55.80
22456;DHT22;11395;53.204;6.502;2023-02-11T15:06:31;24.10;55.80
22456;DHT22;11395;53.204;6.502;2023-02-11T15:09:12;24.10;56.00
22456;DHT22;11395;53.204;6.502;2023-02-11T15:11:41;24.10;56.00
22456;DHT22;11395;53.204;6.502;2023-02-11T15:14:18;24.10;56.10
22456;DHT22;11395;53.204;6.502;2023-02-11T15:16:46;24.10;56.10
22456;DHT22;11395;53.204;6.502;2023-02-11T15:21:45;24.10;56.30
22456;DHT22;11395;53.204;6.502;2023-02-11T15:24:30;24.00;56.60
22456;DHT22;11395;53.204;6.502;2023-02-11T15:27:01;24.00;56.50
22456;DHT22;11395;53.204;6.502;2023-02-11T15:29:38;23.90;56.70
22456;DHT22;11395;53.204;6.502;2023-02-11T15:32:16;23.90;57.00
22456;DHT22;11395;53.204;6.502;2023-02-11T15:34:43;23.90;57.20
22456;DHT22;11395;53.204;6.502;2023-02-11T15:37:19;23.90;56.80
22456;DHT22;11395;53.204;6.502;2023-02-11T15:39:46;23.80;56.30
22456;DHT22;11395;53.204;6.502;2023-02-11T15:42:29;23.80;56.50
22456;DHT22;11395;53.204;6.502;2023-02-11T15:47:46;23.70;56.80
22456;DHT22;11395;53.204;6.502;2023-02-11T15:50:22;23.60;56.70
22456;DHT22;11395;53.204;6.502;2023-02-11T15:52:49;23.60;57.10
22456;DHT22;11395;53.204;6.502;2023-02-11T15:55:17;23.50;56.90
22456;DHT22;11395;53.204;6.502;2023-02-11T15:57:56;23.50;57.00
22456;DHT22;11395;53.204;6.502;2023-02-11T16:00:27;23.40;57.10
22456;DHT22;11395;53.204;6.502;2023-02-11T16:02:56;23.40;57.20
22456;DHT22;11395;53.204;6.502;2023-02-11T16:07:57;23.30;57.60
22456;DHT22;11395;53.204;6.502;2023-02-11T16:13:18;23.30;58.00
22456;DHT22;11395;53.204;6.502;2023-02-11T16:15:57;23.30;57.80
22456;DHT22;11395;53.204;6.502;2023-02-11T16:18:37;23.40;57.70
22456;DHT22;11395;53.204;6.502;2023-02-11T16:21:05;23.40;57.70
22456;DHT22;11395;53.204;6.502;2023-02-11T16:23:34;23.50;57.60
22456;DHT22;11395;53.204;6.502;2023-02-11T16:26:10;23.60;57.40
22456;DHT22;11395;53.204;6.502;2023-02-11T16:28:38;23.60;57.40
22456;DHT22;11395;53.204;6.502;2023-02-11T16:31:04;23.70;57.30
22456;DHT22;11395;53.204;6.502;2023-02-11T16:33:31;23.70;57.30
22456;DHT22;11395;53.204;6.502;2023-02-11T16:35:57;23.80;57.20
22456;DHT22;11395;53.204;6.502;2023-02-11T16:38:27;23.80;57.20
22456;DHT22;11395;53.204;6.502;2023-02-11T16:40:54;23.80;57.20
22456;DHT22;11395;53.204;6.502;2023-02-11T16:43:20;23.80;57.20
22456;DHT22;11395;53.204;6.502;2023-02-11T16:45:47;23.80;57.30
22456;DHT22;11395;53.204;6.502;2023-02-11T16:48:16;23.80;57.20
22456;DHT22;11395;53.204;6.502;2023-02-11T16:50:46;23.80;57.20
22456;DHT22;11395;53.204;6.502;2023-02-11T16:53:20;23.80;57.30
22456;DHT22;11395;53.204;6.502;2023-02-11T16:55:46;23.80;57.50
22456;DHT22;11395;53.204;6.502;2023-02-11T16:58:12;23.80;57.70
22456;DHT22;11395;53.204;6.502;2023-02-11T17:00:39;23.80;57.50
22456;DHT22;11395;53.204;6.502;2023-02-11T17:03:15;23.70;57.40
22456;DHT22;11395;53.204;6.502;2023-02-11T17:05:43;23.70;57.40
22456;DHT22;11395;53.204;6.502;2023-02-11T17:08:10;23.70;57.50
22456;DHT22;11395;53.204;6.502;2023-02-11T17:10:37;23.70;57.60
22456;DHT22;11395;53.204;6.502;2023-02-11T17:13:03;23.60;57.50
22456;DHT22;11395;53.204;6.502;2023-02-11T17:15:32;23.60;57.70
22456;DHT22;11395;53.204;6.502;2023-02-11T17:17:59;23.60;57.70
22456;DHT22;11395;53.204;6.502;2023-02-11T17:20:25;23.50;57.70
22456;DHT22;11395;53.204;6.502;2023-02-11T17:22:51;23.50;57.60
22456;DHT22;11395;53.204;6.502;2023-02-11T17:25:18;23.50;57.60
22456;DHT22;11395;53.204;6.502;2023-02-11T17:27:44;23.50;57.70
22456;DHT22;11395;53.204;6.502;2023-02-11T17:30:12;23.40;57.70
22456;DHT22;11395;53.204;6.502;2023-02-11T17:32:38;23.40;57.60
22456;DHT22;11395;53.204;6.502;2023-02-11T17:35:04;23.40;57.70
22456;DHT22;11395;53.204;6.502;2023-02-11T17:37:32;23.40;57.70
22456;DHT22;11395;53.204;6.502;2023-02-11T17:39:58;23.30;57.80
22456;DHT22;11395;53.204;6.502;2023-02-11T17:42:24;23.30;57.80
22456;DHT22;11395;53.204;6.502;2023-02-11T17:44:51;23.30;57.90
22456;DHT22;11395;53.204;6.502;2023-02-11T17:47:17;23.30;58.00
22456;DHT22;11395;53.204;6.502;2023-02-11T17:49:44;23.30;58.00
22456;DHT22;11395;53.204;6.502;2023-02-11T17:52:10;23.30;57.90
22456;DHT22;11395;53.204;6.502;2023-02-11T17:54:37;23.40;58.00
22456;DHT22;11395;53.204;6.502;2023-02-11T17:57:03;23.40;57.90
22456;DHT22;11395;53.204;6.502;2023-02-11T17:59:29;23.50;57.80
22456;DHT22;11395;53.204;6.502;2023-02-11T18:02:02;23.60;57.70
22456;DHT22;11395;53.204;6.502;2023-02-11T18:04:28;23.60;57.50
22456;DHT22;11395;53.204;6.502;2023-02-11T18:06:54;23.70;57.20
22456;DHT22;11395;53.204;6.502;2023-02-11T18:09:23;23.70;57.00
22456;DHT22;11395;53.204;6.502;2023-02-11T18:11:50;23.70;56.90
22456;DHT22;11395;53.204;6.502;2023-02-11T18:14:19;23.70;56.90
22456;DHT22;11395;53.204;6.502;2023-02-11T18:16:49;23.70;56.80
22456;DHT22;11395;53.204;6.502;2023-02-11T18:19:15;23.80;56.80